createdAt,value
2018-07-24T00:01:38.386Z,10.10
2018-07-24T00:04:06.650Z,10.15
2018-07-24T00:06:34.832Z,9.40
2018-07-24T00:09:03.238Z,9.33
2018-07-24T00:11:31.687Z,9.48
2018-07-24T00:13:59.889Z,10.08
2018-07-24T00:16:28.097Z,9.90
2018-07-24T00:18:56.270Z,9.03
2018-07-24T00:21:24.922Z,9.80
2018-07-24T00:23:53.793Z,8.67
2018-07-24T00:26:22.830Z,9.70
2018-07-24T00:28:51.049Z,9.33
2018-07-24T00:31:19.425Z,10.20
2018-07-24T00:33:47.600Z,10.77
2018-07-24T00:36:15.752Z,9.77
2018-07-24T00:38:44.417Z,9.73
2018-07-24T00:41:12.640Z,8.97
2018-07-24T00:43:40.845Z,9.90
2018-07-24T00:46:09.036Z,8.90
2018-07-24T00:48:37.209Z,9.27
2018-07-24T00:51:07.068Z,10.10
2018-07-24T00:53:35.257Z,9.97
2018-07-24T00:56:03.545Z,9.20
2018-07-24T00:58:31.760Z,10.13
2018-07-24T01:01:00.398Z,9.93
2018-07-24T01:03:28.598Z,9.80
2018-07-24T01:05:56.802Z,10.97
2018-07-24T01:08:24.951Z,12.83
2018-07-24T01:10:53.143Z,12.63
2018-07-24T01:13:21.345Z,11.60
2018-07-24T01:15:49.595Z,11.53
2018-07-24T01:18:17.786Z,12.17
2018-07-24T01:20:45.977Z,11.47
2018-07-24T01:23:14.237Z,11.50
2018-07-24T01:25:43.169Z,10.60
2018-07-24T01:28:11.354Z,11.40
2018-07-24T01:30:39.540Z,10.67
2018-07-24T01:33:07.747Z,10.87
2018-07-24T01:35:35.917Z,11.10
2018-07-24T01:38:04.094Z,11.33
2018-07-24T01:40:32.386Z,11.70
2018-07-24T01:43:00.582Z,13.10
2018-07-24T01:45:28.821Z,12.90
2018-07-24T01:47:57.043Z,12.90
2018-07-24T01:50:25.244Z,13.43
2018-07-24T01:52:54.365Z,14.03
2018-07-24T01:55:22.624Z,13.77
2018-07-24T01:57:50.881Z,12.30
2018-07-24T02:00:19.034Z,13.07
2018-07-24T02:02:47.229Z,12.70
2018-07-24T02:05:15.758Z,11.97
2018-07-24T02:07:43.989Z,11.80
2018-07-24T02:10:12.189Z,13.27
2018-07-24T02:12:40.346Z,13.90
2018-07-24T02:15:08.809Z,14.20
2018-07-24T02:17:37.439Z,16.67
2018-07-24T02:20:05.951Z,16.20
2018-07-24T02:22:34.099Z,15.50
2018-07-24T02:25:02.314Z,16.47
2018-07-24T02:27:30.547Z,15.83
2018-07-24T02:29:58.768Z,17.30
2018-07-24T02:32:26.974Z,15.77
2018-07-24T02:34:55.154Z,15.77
2018-07-24T02:37:23.397Z,14.27
2018-07-24T02:39:51.609Z,13.43
2018-07-24T02:42:19.833Z,13.27
2018-07-24T02:44:48.007Z,14.97
2018-07-24T02:47:16.416Z,16.30
2018-07-24T02:49:44.613Z,17.30
2018-07-24T02:52:13.009Z,16.53
2018-07-24T02:54:41.227Z,16.73
2018-07-24T02:57:09.465Z,15.33
2018-07-24T02:59:37.669Z,14.93
2018-07-24T03:02:06.662Z,14.93
2018-07-24T03:04:34.846Z,14.37
2018-07-24T03:07:03.110Z,13.87
2018-07-24T03:09:31.330Z,14.30
2018-07-24T03:11:59.495Z,13.97
2018-07-24T03:14:28.045Z,15.27
2018-07-24T03:16:56.197Z,15.37
2018-07-24T03:19:24.916Z,14.20
2018-07-24T03:21:53.083Z,13.43
2018-07-24T03:24:21.314Z,13.77
2018-07-24T03:26:49.749Z,13.30
2018-07-24T03:29:18.922Z,14.70
2018-07-24T03:31:47.146Z,13.27
2018-07-24T03:34:15.646Z,13.63
2018-07-24T03:36:43.827Z,13.87
2018-07-24T03:39:12.978Z,13.00
2018-07-24T03:41:41.846Z,12.43
2018-07-24T03:44:10.642Z,12.23
2018-07-24T03:46:38.796Z,13.67
2018-07-24T03:49:07.929Z,14.83
2018-07-24T03:51:36.099Z,14.70
2018-07-24T03:54:04.337Z,15.23
2018-07-24T03:56:32.807Z,18.00
2018-07-24T03:59:00.942Z,18.23
2018-07-24T04:01:29.132Z,18.83
2018-07-24T04:03:57.327Z,17.40
2018-07-24T04:06:25.592Z,18.00
2018-07-24T04:08:54.006Z,17.53
2018-07-24T04:11:22.179Z,16.73
2018-07-24T04:13:50.441Z,17.63
2018-07-24T04:16:18.694Z,16.93
2018-07-24T04:18:49.689Z,17.10
2018-07-24T04:21:18.980Z,16.03
2018-07-24T04:23:48.277Z,15.57
2018-07-24T04:26:16.484Z,15.10
2018-07-24T04:28:45.544Z,15.30
2018-07-24T04:31:14.800Z,15.40
2018-07-24T04:33:43.450Z,14.87
2018-07-24T04:36:11.670Z,15.60
2018-07-24T04:38:39.894Z,15.97
2018-07-24T04:41:08.102Z,15.30
2018-07-24T04:43:36.305Z,14.07
2018-07-24T04:46:04.990Z,14.33
2018-07-24T04:48:33.336Z,13.72
2018-07-24T04:51:01.554Z,12.07
2018-07-24T04:53:29.722Z,12.53
2018-07-24T04:55:57.953Z,11.60
2018-07-24T04:58:26.158Z,9.55
2018-07-24T05:00:56.037Z,9.65
2018-07-24T05:03:24.691Z,9.55
2018-07-24T05:05:52.868Z,9.95
2018-07-24T05:08:21.060Z,9.13
2018-07-24T05:10:49.246Z,8.50
2018-07-24T05:13:17.490Z,8.63
2018-07-24T05:15:45.701Z,8.83
2018-07-24T05:18:13.646Z,8.38
2018-07-24T05:20:41.881Z,9.73
2018-07-24T05:23:10.107Z,8.88
2018-07-24T05:25:38.356Z,10.38
2018-07-24T05:28:06.548Z,9.83
2018-07-24T05:30:34.694Z,9.80
2018-07-24T05:33:02.994Z,9.00
2018-07-24T05:35:32.119Z,9.23
2018-07-24T05:38:00.333Z,8.65
2018-07-24T05:40:28.518Z,8.88
2018-07-24T05:42:56.786Z,9.20
2018-07-24T05:45:25.283Z,8.75
2018-07-24T05:47:53.512Z,7.92
2018-07-24T05:50:21.686Z,8.05
2018-07-24T05:52:49.879Z,9.00
2018-07-24T05:55:18.081Z,7.53
2018-07-24T05:57:46.266Z,8.70
2018-07-24T06:00:14.773Z,7.90
2018-07-24T06:02:43.837Z,7.25
2018-07-24T06:05:12.005Z,7.72
2018-07-24T06:07:40.184Z,7.05
2018-07-24T06:10:08.368Z,6.25
2018-07-24T06:12:36.601Z,6.12
2018-07-24T06:15:05.938Z,6.20
2018-07-24T06:17:34.870Z,6.70
2018-07-24T06:20:03.078Z,6.00
2018-07-24T06:22:31.353Z,5.12
2018-07-24T06:24:59.610Z,6.12
2018-07-24T06:27:27.813Z,5.17
2018-07-24T06:29:55.966Z,4.67
2018-07-24T06:32:24.113Z,5.20
2018-07-24T06:34:52.336Z,6.10
2018-07-24T06:37:20.493Z,5.62
2018-07-24T06:39:49.094Z,5.10
2018-07-24T06:42:17.246Z,4.97
2018-07-24T06:44:45.453Z,5.03
2018-07-24T06:47:13.697Z,4.65
2018-07-24T06:49:41.874Z,4.90
2018-07-24T06:52:10.059Z,4.60
2018-07-24T06:54:38.230Z,4.40
2018-07-24T06:57:06.404Z,4.12
2018-07-24T06:59:34.677Z,4.28
2018-07-24T07:02:02.954Z,4.20
2018-07-24T07:04:31.103Z,4.05
2018-07-24T07:06:59.379Z,4.22
2018-07-24T07:09:29.217Z,4.10
2018-07-24T07:11:57.928Z,3.92
2018-07-24T07:14:26.164Z,3.72
2018-07-24T07:16:54.398Z,4.20
2018-07-24T07:19:22.638Z,3.80
2018-07-24T07:21:51.177Z,3.62
2018-07-24T07:24:19.351Z,3.95
2018-07-24T07:26:47.567Z,3.80
2018-07-24T07:29:15.791Z,3.60
2018-07-24T07:31:43.928Z,3.83
2018-07-24T07:34:12.138Z,3.65
2018-07-24T07:36:40.319Z,4.10
2018-07-24T07:39:09.567Z,4.28
2018-07-24T07:41:37.778Z,3.85
2018-07-24T07:44:06.066Z,3.90
2018-07-24T07:46:34.267Z,3.62
2018-07-24T07:49:02.590Z,3.47
2018-07-24T07:51:31.291Z,3.67
2018-07-24T07:53:59.878Z,4.00
2018-07-24T07:56:28.048Z,3.83
2018-07-24T07:58:56.252Z,3.80
2018-07-24T08:01:24.473Z,3.72
2018-07-24T08:03:52.681Z,4.05
2018-07-24T08:06:20.854Z,3.65
2018-07-24T08:08:49.047Z,3.45
2018-07-24T08:11:17.227Z,3.98
2018-07-24T08:13:45.500Z,3.60
2018-07-24T08:16:14.441Z,3.30
2018-07-24T08:18:42.645Z,3.35
2018-07-24T08:21:10.818Z,3.92
2018-07-24T08:23:39.762Z,3.50
2018-07-24T08:26:07.957Z,3.50
2018-07-24T08:28:36.221Z,3.77
2018-07-24T08:31:04.430Z,3.47
2018-07-24T08:33:32.651Z,3.30
2018-07-24T08:36:01.075Z,3.30
2018-07-24T08:38:29.263Z,3.67
2018-07-24T08:40:57.460Z,3.83
2018-07-24T08:43:26.180Z,3.62
2018-07-24T08:45:54.410Z,3.72
2018-07-24T08:48:22.637Z,3.80
2018-07-24T08:50:50.803Z,3.47
2018-07-24T08:53:19.221Z,3.50
2018-07-24T08:55:47.424Z,4.10
2018-07-24T08:58:15.970Z,3.60
2018-07-24T09:00:44.150Z,3.80
2018-07-24T09:03:13.063Z,3.70
2018-07-24T09:05:41.210Z,3.27
2018-07-24T09:08:09.414Z,3.08
2018-07-24T09:10:39.419Z,3.65
2018-07-24T09:13:07.344Z,3.52
2018-07-24T09:15:35.583Z,3.55
2018-07-24T09:18:03.741Z,3.60
2018-07-24T09:20:31.949Z,3.05
2018-07-24T09:23:00.142Z,3.67
2018-07-24T09:25:28.325Z,3.17
2018-07-24T09:27:56.554Z,3.12
2018-07-24T09:30:24.760Z,3.00
2018-07-24T09:32:53.337Z,3.12
2018-07-24T09:35:21.586Z,2.92
2018-07-24T09:37:49.764Z,3.20
2018-07-24T09:40:18.478Z,3.10
2018-07-24T09:42:46.730Z,3.10
2018-07-24T09:45:15.055Z,3.37
2018-07-24T09:47:43.224Z,3.30
2018-07-24T09:50:11.422Z,3.52
2018-07-24T09:52:39.622Z,2.83
2018-07-24T09:55:07.777Z,2.75
2018-07-24T09:57:35.949Z,3.00
2018-07-24T10:00:05.019Z,3.10
2018-07-24T10:02:33.255Z,3.20
2018-07-24T10:05:01.485Z,3.30
2018-07-24T10:07:29.714Z,3.00
2018-07-24T10:09:57.942Z,2.92
2018-07-24T10:12:26.180Z,3.10
2018-07-24T10:14:54.450Z,3.20
2018-07-24T10:17:23.242Z,3.00
2018-07-24T10:19:51.445Z,3.33
2018-07-24T10:22:20.056Z,3.58
2018-07-24T10:24:48.237Z,3.62
2018-07-24T10:27:17.226Z,3.22
2018-07-24T10:29:45.442Z,3.25
2018-07-24T10:32:13.644Z,3.67
2018-07-24T10:34:42.081Z,3.77
2018-07-24T10:37:10.284Z,3.30
2018-07-24T10:39:38.540Z,3.22
2018-07-24T10:42:06.748Z,3.00
2018-07-24T10:44:34.930Z,3.47
2018-07-24T10:47:03.107Z,3.02
2018-07-24T10:49:31.287Z,3.58
2018-07-24T10:51:59.460Z,3.65
2018-07-24T10:54:27.512Z,3.98
2018-07-24T10:56:55.698Z,3.52
2018-07-24T10:59:23.858Z,3.60
2018-07-24T11:01:52.073Z,3.50
2018-07-24T11:04:20.018Z,3.98
2018-07-24T11:06:48.169Z,4.20
2018-07-24T11:09:16.610Z,4.05
2018-07-24T11:11:45.074Z,3.95
2018-07-24T11:14:13.253Z,3.70
2018-07-24T11:16:41.826Z,4.20
2018-07-24T11:19:10.178Z,3.90
2018-07-24T11:21:38.353Z,3.83
2018-07-24T11:24:06.547Z,3.92
2018-07-24T11:26:36.076Z,3.85
2018-07-24T11:29:04.241Z,3.77
2018-07-24T11:31:32.426Z,3.70
2018-07-24T11:34:01.026Z,3.85
2018-07-24T11:36:29.210Z,3.65
2018-07-24T11:38:57.427Z,3.58
2018-07-24T11:41:25.629Z,3.72
2018-07-24T11:43:53.870Z,3.40
2018-07-24T11:46:22.133Z,4.00
2018-07-24T11:48:50.305Z,3.75
2018-07-24T11:51:18.497Z,4.50
2018-07-24T11:53:47.090Z,3.92
2018-07-24T11:56:16.840Z,3.72
2018-07-24T11:58:45.061Z,3.85
2018-07-24T12:01:13.882Z,3.80
2018-07-24T12:03:42.086Z,3.67
2018-07-24T12:06:10.266Z,3.70
2018-07-24T12:08:38.627Z,3.72
2018-07-24T12:11:07.466Z,3.90
2018-07-24T12:13:35.973Z,3.80
2018-07-24T12:16:04.097Z,3.80
2018-07-24T12:18:32.370Z,3.65
2018-07-24T12:21:00.531Z,3.65
2018-07-24T12:23:29.034Z,3.90
2018-07-24T12:25:57.210Z,3.60
2018-07-24T12:28:25.412Z,3.87
2018-07-24T12:30:53.597Z,3.67
2018-07-24T12:33:21.771Z,3.65
2018-07-24T12:35:49.975Z,4.33
2018-07-24T12:38:18.117Z,3.92
2018-07-24T12:40:46.323Z,3.42
2018-07-24T12:43:14.507Z,3.60
2018-07-24T12:45:42.649Z,3.60
2018-07-24T12:48:15.334Z,3.60
2018-07-24T12:50:43.530Z,3.75
2018-07-24T12:53:11.746Z,3.90
2018-07-24T12:55:39.963Z,3.60
2018-07-24T12:58:08.182Z,4.10
2018-07-24T13:00:36.359Z,3.98
2018-07-24T13:03:04.630Z,3.65
2018-07-24T13:05:32.821Z,3.72
2018-07-24T13:08:01.010Z,3.67
2018-07-24T13:10:29.210Z,3.58
2018-07-24T13:12:57.435Z,3.40
2018-07-24T13:15:25.609Z,3.62
2018-07-24T13:17:53.810Z,3.75
2018-07-24T13:20:21.769Z,4.05
2018-07-24T13:22:49.954Z,3.62
2018-07-24T13:25:18.210Z,3.52
2018-07-24T13:27:46.409Z,3.42
2018-07-24T13:30:14.610Z,4.08
2018-07-24T13:32:42.787Z,4.00
2018-07-24T13:35:10.987Z,3.75
2018-07-24T13:37:39.185Z,3.75
2018-07-24T13:40:07.435Z,3.80
2018-07-24T13:42:36.409Z,3.92
2018-07-24T13:45:06.408Z,4.08
2018-07-24T13:47:34.545Z,3.95
2018-07-24T13:50:02.757Z,3.92
2018-07-24T13:52:30.955Z,3.67
2018-07-24T13:54:59.137Z,3.83
2018-07-24T13:57:27.325Z,3.65
2018-07-24T13:59:55.499Z,3.42
2018-07-24T14:02:23.675Z,3.30
2018-07-24T14:04:51.834Z,3.77
2018-07-24T14:07:20.013Z,3.62
2018-07-24T14:09:48.234Z,3.25
2018-07-24T14:12:17.124Z,4.20
2018-07-24T14:14:45.090Z,3.87
2018-07-24T14:17:13.655Z,3.85
2018-07-24T14:19:41.883Z,3.70
2018-07-24T14:22:10.103Z,3.85
2018-07-24T14:24:38.274Z,3.80
2018-07-24T14:27:06.506Z,4.00
2018-07-24T14:29:34.768Z,4.03
2018-07-24T14:32:03.724Z,3.52
2018-07-24T14:34:31.898Z,3.60
2018-07-24T14:37:02.859Z,3.77
2018-07-24T14:39:31.027Z,3.72
2018-07-24T14:41:59.221Z,4.20
2018-07-24T14:44:27.398Z,4.00
2018-07-24T14:46:55.591Z,3.55
2018-07-24T14:49:23.894Z,3.98
2018-07-24T14:51:52.066Z,3.45
2018-07-24T14:54:20.275Z,3.77
2018-07-24T14:56:48.480Z,3.20
2018-07-24T14:59:16.631Z,3.33
2018-07-24T15:01:44.789Z,3.50
2018-07-24T15:04:12.980Z,3.92
2018-07-24T15:06:41.194Z,3.67
2018-07-24T15:09:11.568Z,3.27
2018-07-24T15:11:40.031Z,3.20
2018-07-24T15:14:08.312Z,3.90
2018-07-24T15:16:36.466Z,4.00
2018-07-24T15:19:04.686Z,3.52
2018-07-24T15:21:32.649Z,3.60
2018-07-24T15:24:00.860Z,4.33
2018-07-24T15:26:29.054Z,3.40
2018-07-24T15:28:57.815Z,4.08
2018-07-24T15:31:25.974Z,3.65
2018-07-24T15:33:54.177Z,3.87
2018-07-24T15:36:22.397Z,4.08
2018-07-24T15:38:50.577Z,3.80
2018-07-24T15:41:19.472Z,4.10
2018-07-24T15:43:47.657Z,4.00
2018-07-24T15:46:17.758Z,3.70
2018-07-24T15:48:45.942Z,3.92
2018-07-24T15:51:14.138Z,3.80
2018-07-24T15:53:42.323Z,3.85
2018-07-24T15:56:12.068Z,3.45
2018-07-24T15:58:40.198Z,3.83
2018-07-24T16:01:08.423Z,4.08
2018-07-24T16:03:36.698Z,3.67
2018-07-24T16:06:04.919Z,3.70
2018-07-24T16:08:33.053Z,3.45
2018-07-24T16:11:01.262Z,3.75
2018-07-24T16:13:29.473Z,3.65
2018-07-24T16:15:57.800Z,3.90
2018-07-24T16:18:25.973Z,3.65
2018-07-24T16:20:54.142Z,3.50
2018-07-24T16:23:22.821Z,3.85
2018-07-24T16:25:51.010Z,3.55
2018-07-24T16:28:19.171Z,3.60
2018-07-24T16:30:47.358Z,3.40
2018-07-24T16:33:15.573Z,3.90
2018-07-24T16:35:44.380Z,4.05
2018-07-24T16:38:12.651Z,4.30
2018-07-24T16:40:40.849Z,4.03
2018-07-24T16:43:09.053Z,3.92
2018-07-24T16:45:37.290Z,3.92
2018-07-24T16:48:05.502Z,3.75
2018-07-24T16:50:33.783Z,4.03
2018-07-24T16:53:01.910Z,3.92
2018-07-24T16:55:30.151Z,3.75
2018-07-24T16:57:58.403Z,3.83
2018-07-24T17:00:26.968Z,3.80
2018-07-24T17:02:55.411Z,3.90
2018-07-24T17:05:23.546Z,3.85
2018-07-24T17:07:53.618Z,3.80
2018-07-24T17:10:21.825Z,4.10
2018-07-24T17:12:49.993Z,4.08
2018-07-24T17:15:18.734Z,4.08
2018-07-24T17:17:47.911Z,3.65
2018-07-24T17:20:16.105Z,3.58
2018-07-24T17:22:45.218Z,3.72
2018-07-24T17:25:13.453Z,3.25
2018-07-24T17:27:41.639Z,3.72
2018-07-24T17:30:10.571Z,3.72
2018-07-24T17:32:38.735Z,3.75
2018-07-24T17:35:06.929Z,4.62
2018-07-24T17:37:35.117Z,3.75
2018-07-24T17:40:03.755Z,3.50
2018-07-24T17:42:31.933Z,3.85
2018-07-24T17:45:01.045Z,3.50
2018-07-24T17:47:29.253Z,4.12
2018-07-24T17:49:57.442Z,3.25
2018-07-24T17:52:25.615Z,3.58
2018-07-24T17:54:53.837Z,3.22
2018-07-24T17:57:22.059Z,3.80
2018-07-24T17:59:50.284Z,3.45
2018-07-24T18:02:18.446Z,3.55
2018-07-24T18:04:46.667Z,3.90
2018-07-24T18:07:15.162Z,3.72
2018-07-24T18:09:43.971Z,3.52
2018-07-24T18:12:12.201Z,3.55
2018-07-24T18:14:40.414Z,3.37
2018-07-24T18:17:12.301Z,3.72
2018-07-24T18:19:40.554Z,3.50
2018-07-24T18:22:08.758Z,3.50
2018-07-24T18:24:36.962Z,3.60
2018-07-24T18:27:05.559Z,3.65
2018-07-24T18:29:33.781Z,4.28
2018-07-24T18:32:02.001Z,3.98
2018-07-24T18:34:30.214Z,3.92
2018-07-24T18:36:58.405Z,3.80
2018-07-24T18:39:26.582Z,3.92
2018-07-24T18:41:55.119Z,3.80
2018-07-24T18:44:23.305Z,4.20
2018-07-24T18:46:51.496Z,4.25
2018-07-24T18:49:19.738Z,4.30
2018-07-24T18:51:47.677Z,4.55
2018-07-24T18:54:15.896Z,4.20
2018-07-24T18:56:44.113Z,4.80
2018-07-24T18:59:12.281Z,5.03
2018-07-24T19:01:40.417Z,4.53
2018-07-24T19:04:08.626Z,4.10
2018-07-24T19:06:36.866Z,4.53
2018-07-24T19:09:08.249Z,4.05
2018-07-24T19:11:36.692Z,5.03
2018-07-24T19:14:04.837Z,4.65
2018-07-24T19:16:33.136Z,5.03
2018-07-24T19:19:01.418Z,4.95
2018-07-24T19:21:29.632Z,4.60
2018-07-24T19:23:57.834Z,4.40
2018-07-24T19:26:26.039Z,4.50
2018-07-24T19:28:54.238Z,4.65
2018-07-24T19:31:22.567Z,4.37
2018-07-24T19:33:50.707Z,4.72
2018-07-24T19:36:18.884Z,4.47
2018-07-24T19:38:47.062Z,4.45
2018-07-24T19:41:15.782Z,4.80
2018-07-24T19:43:44.095Z,5.10
2018-07-24T19:46:12.261Z,5.87
2018-07-24T19:48:40.463Z,5.10
2018-07-24T19:51:08.641Z,5.30
2018-07-24T19:53:36.787Z,5.00
2018-07-24T19:56:05.365Z,5.37
2018-07-24T19:58:33.616Z,5.28
2018-07-24T20:01:01.850Z,5.08
2018-07-24T20:03:30.166Z,4.85
2018-07-24T20:05:58.285Z,4.90
2018-07-24T20:08:27.265Z,5.05
2018-07-24T20:10:55.481Z,4.97
2018-07-24T20:13:23.702Z,5.10
2018-07-24T20:15:51.946Z,4.65
2018-07-24T20:18:20.120Z,5.67
2018-07-24T20:20:49.030Z,5.00
2018-07-24T20:23:17.359Z,4.70
2018-07-24T20:25:45.433Z,4.45
2018-07-24T20:28:13.596Z,4.72
2018-07-24T20:30:41.866Z,4.87
2018-07-24T20:33:10.040Z,5.20
2018-07-24T20:35:38.288Z,5.25
2018-07-24T20:38:06.436Z,5.85
2018-07-24T20:40:34.609Z,6.50
2018-07-24T20:43:02.803Z,5.58
2018-07-24T20:45:30.944Z,5.60
2018-07-24T20:47:59.139Z,5.40
2018-07-24T20:50:27.347Z,5.75
2018-07-24T20:52:55.726Z,5.40
2018-07-24T20:55:23.904Z,6.10
2018-07-24T20:57:53.065Z,5.67
2018-07-24T21:00:22.890Z,5.67
2018-07-24T21:02:51.129Z,5.80
2018-07-24T21:05:19.424Z,6.22
2018-07-24T21:07:47.661Z,5.85
2018-07-24T21:10:17.489Z,5.87
2018-07-24T21:12:46.970Z,6.12
2018-07-24T21:15:16.760Z,6.17
2018-07-24T21:17:44.963Z,5.83
2018-07-24T21:20:13.171Z,5.78
2018-07-24T21:22:41.390Z,6.25
2018-07-24T21:25:09.551Z,6.42
2018-07-24T21:27:37.780Z,6.62
2018-07-24T21:30:06.920Z,6.28
2018-07-24T21:32:35.145Z,6.30
2018-07-24T21:35:03.365Z,6.37
2018-07-24T21:37:32.149Z,6.40
2018-07-24T21:40:01.844Z,5.80
2018-07-24T21:42:30.081Z,6.33
2018-07-24T21:44:59.067Z,6.70
2018-07-24T21:47:27.610Z,6.58
2018-07-24T21:49:55.795Z,6.55
2018-07-24T21:52:24.064Z,6.58
2018-07-24T21:54:52.586Z,6.47
2018-07-24T21:57:20.435Z,6.25
2018-07-24T21:59:48.801Z,6.85
2018-07-24T22:02:17.787Z,5.72
2018-07-24T22:04:46.111Z,6.20
2018-07-24T22:07:14.910Z,7.00
2018-07-24T22:09:43.185Z,7.67
2018-07-24T22:12:11.382Z,6.60
2018-07-24T22:14:39.627Z,7.33
2018-07-24T22:17:07.757Z,6.70
2018-07-24T22:19:35.926Z,6.47
2018-07-24T22:22:04.089Z,6.67
2018-07-24T22:24:32.309Z,6.78
2018-07-24T22:27:00.482Z,6.50
2018-07-24T22:29:28.673Z,7.03
2018-07-24T22:31:56.891Z,6.45
2018-07-24T22:34:25.131Z,7.33
2018-07-24T22:36:53.325Z,6.60
2018-07-24T22:39:21.485Z,7.17
2018-07-24T22:41:49.687Z,6.65
2018-07-24T22:44:17.865Z,6.90
2018-07-24T22:46:46.422Z,7.40
2018-07-24T22:49:14.756Z,6.78
2018-07-24T22:51:42.923Z,7.92
2018-07-24T22:54:11.510Z,7.35
2018-07-24T22:56:39.718Z,7.35
2018-07-24T22:59:07.888Z,7.40
2018-07-24T23:01:36.060Z,7.33
2018-07-24T23:04:06.066Z,7.58
2018-07-24T23:06:34.266Z,7.28
2018-07-24T23:09:02.482Z,7.58
2018-07-24T23:11:30.669Z,7.35
2018-07-24T23:13:58.841Z,7.62
2018-07-24T23:16:27.111Z,7.62
2018-07-24T23:18:55.305Z,7.90
2018-07-24T23:21:23.493Z,8.43
2018-07-24T23:23:51.653Z,8.25
2018-07-24T23:26:19.840Z,8.33
2018-07-24T23:28:48.033Z,7.85
2018-07-24T23:31:17.391Z,8.15
2018-07-24T23:33:45.551Z,7.65
2018-07-24T23:36:13.741Z,7.90
2018-07-24T23:38:42.653Z,7.97
2018-07-24T23:41:10.838Z,8.73
2018-07-24T23:43:39.022Z,8.00
2018-07-24T23:46:07.185Z,8.90
2018-07-24T23:48:35.358Z,8.48
2018-07-24T23:51:03.547Z,8.50
2018-07-24T23:53:32.398Z,9.73
2018-07-24T23:56:00.586Z,8.45
2018-07-24T23:58:28.803Z,8.65
